sensor_id;sensor_type;location;lat;lon;timestamp;P1;durP1;ratioP1;P2;durP2;ratioP2
16804;SDS011;8520;50.102;20.010;2023-02-10T00:01:35;48.50;;;39.03;;
16804;SDS011;8520;50.102;20.010;2023-02-10T00:04:03;50.77;;;41.87;;
16804;SDS011;8520;50.102;20.010;2023-02-10T00:06:32;56.17;;;43.80;;
16804;SDS011;8520;50.102;20.010;2023-02-10T00:09:01;55.97;;;43.20;;
16804;SDS011;8520;50.102;20.010;2023-02-10T00:11:30;51.47;;;41.03;;
16804;SDS011;8520;50.102;20.010;2023-02-10T00:14:16;52.33;;;42.23;;
16804;SDS011;8520;50.102;20.010;2023-02-10T00:16:48;46.77;;;39.47;;
16804;SDS011;8520;50.102;20.010;2023-02-10T00:19:16;46.67;;;36.07;;
16804;SDS011;8520;50.102;20.010;2023-02-10T00:21:44;49.23;;;37.57;;
16804;SDS011;8520;50.102;20.010;2023-02-10T00:24:13;46.43;;;37.20;;
16804;SDS011;8520;50.102;20.010;2023-02-10T00:26:41;46.57;;;38.27;;
16804;SDS011;8520;50.102;20.010;2023-02-10T00:29:10;49.87;;;39.57;;
16804;SDS011;8520;50.102;20.010;2023-02-10T00:31:38;49.07;;;39.77;;
16804;SDS011;8520;50.102;20.010;2023-02-10T00:34:08;60.80;;;48.67;;
16804;SDS011;8520;50.102;20.010;2023-02-10T00:36:37;74.60;;;56.60;;
16804;SDS011;8520;50.102;20.010;2023-02-10T00:39:05;76.70;;;61.30;;
16804;SDS011;8520;50.102;20.010;2023-02-10T00:41:34;72.93;;;57.17;;
16804;SDS011;8520;50.102;20.010;2023-02-10T00:44:03;68.10;;;52.23;;
16804;SDS011;8520;50.102;20.010;2023-02-10T00:46:32;66.97;;;51.90;;
16804;SDS011;8520;50.102;20.010;2023-02-10T00:49:00;60.20;;;46.57;;
16804;SDS011;8520;50.102;20.010;2023-02-10T00:51:30;52.73;;;41.33;;
16804;SDS011;8520;50.102;20.010;2023-02-10T00:53:58;53.27;;;41.97;;
16804;SDS011;8520;50.102;20.010;2023-02-10T00:56:26;53.03;;;40.60;;
16804;SDS011;8520;50.102;20.010;2023-02-10T00:58:56;51.43;;;39.93;;
16804;SDS011;8520;50.102;20.010;2023-02-10T01:01:24;47.70;;;37.90;;
16804;SDS011;8520;50.102;20.010;2023-02-10T01:03:52;52.33;;;40.97;;
16804;SDS011;8520;50.102;20.010;2023-02-10T01:06:20;53.50;;;40.83;;
16804;SDS011;8520;50.102;20.010;2023-02-10T01:08:50;54.00;;;43.20;;
16804;SDS011;8520;50.102;20.010;2023-02-10T01:11:18;54.60;;;42.70;;
16804;SDS011;8520;50.102;20.010;2023-02-10T01:13:46;56.03;;;44.53;;
16804;SDS011;8520;50.102;20.010;2023-02-10T01:16:15;56.57;;;44.30;;
16804;SDS011;8520;50.102;20.010;2023-02-10T01:18:44;55.97;;;42.40;;
16804;SDS011;8520;50.102;20.010;2023-02-10T01:21:13;50.63;;;38.00;;
16804;SDS011;8520;50.102;20.010;2023-02-10T01:23:44;50.83;;;39.37;;
16804;SDS011;8520;50.102;20.010;2023-02-10T01:26:14;53.73;;;43.87;;
16804;SDS011;8520;50.102;20.010;2023-02-10T01:28:43;53.33;;;42.63;;
16804;SDS011;8520;50.102;20.010;2023-02-10T01:31:12;55.33;;;43.23;;
16804;SDS011;8520;50.102;20.010;2023-02-10T01:33:42;56.63;;;43.73;;
16804;SDS011;8520;50.102;20.010;2023-02-10T01:36:11;53.93;;;43.70;;
16804;SDS011;8520;50.102;20.010;2023-02-10T01:38:42;56.33;;;43.97;;
16804;SDS011;8520;50.102;20.010;2023-02-10T01:41:12;50.47;;;39.87;;
16804;SDS011;8520;50.102;20.010;2023-02-10T01:43:56;51.07;;;41.37;;
16804;SDS011;8520;50.102;20.010;2023-02-10T01:46:27;50.17;;;39.07;;
16804;SDS011;8520;50.102;20.010;2023-02-10T01:48:57;45.53;;;37.20;;
16804;SDS011;8520;50.102;20.010;2023-02-10T01:51:31;54.90;;;43.47;;
16804;SDS011;8520;50.102;20.010;2023-02-10T01:54:05;58.33;;;46.03;;
16804;SDS011;8520;50.102;20.010;2023-02-10T01:56:36;57.27;;;46.03;;
16804;SDS011;8520;50.102;20.010;2023-02-10T01:59:06;57.17;;;44.70;;
16804;SDS011;8520;50.102;20.010;2023-02-10T02:01:35;57.43;;;46.57;;
16804;SDS011;8520;50.102;20.010;2023-02-10T02:04:03;61.23;;;47.50;;
16804;SDS011;8520;50.102;20.010;2023-02-10T02:06:31;62.77;;;48.37;;
16804;SDS011;8520;50.102;20.010;2023-02-10T02:09:01;61.80;;;46.63;;
16804;SDS011;8520;50.102;20.010;2023-02-10T02:11:30;53.67;;;44.63;;
16804;SDS011;8520;50.102;20.010;2023-02-10T02:14:13;57.83;;;45.50;;
16804;SDS011;8520;50.102;20.010;2023-02-10T02:16:57;56.60;;;44.77;;
16804;SDS011;8520;50.102;20.010;2023-02-10T02:19:45;50.57;;;41.87;;
16804;SDS011;8520;50.102;20.010;2023-02-10T02:26:19;46.60;;;37.47;;
16804;SDS011;8520;50.102;20.010;2023-02-10T02:32:07;47.13;;;36.30;;
16804;SDS011;8520;50.102;20.010;2023-02-10T02:34:40;44.07;;;35.40;;
16804;SDS011;8520;50.102;20.010;2023-02-10T02:37:19;42.83;;;36.07;;
16804;SDS011;8520;50.102;20.010;2023-02-10T02:39:51;42.93;;;35.40;;
16804;SDS011;8520;50.102;20.010;2023-02-10T02:42:22;44.40;;;36.50;;
16804;SDS011;8520;50.102;20.010;2023-02-10T02:44:53;44.03;;;34.50;;
16804;SDS011;8520;50.102;20.010;2023-02-10T02:47:30;45.43;;;36.10;;
16804;SDS011;8520;50.102;20.010;2023-02-10T02:50:12;43.60;;;35.03;;
16804;SDS011;8520;50.102;20.010;2023-02-10T02:52:51;41.03;;;34.47;;
16804;SDS011;8520;50.102;20.010;2023-02-10T02:55:34;42.23;;;34.23;;
16804;SDS011;8520;50.102;20.010;2023-02-10T02:58:13;43.83;;;33.77;;
16804;SDS011;8520;50.102;20.010;2023-02-10T03:00:46;47.27;;;37.73;;
16804;SDS011;8520;50.102;20.010;2023-02-10T03:03:17;48.33;;;39.13;;
16804;SDS011;8520;50.102;20.010;2023-02-10T03:05:46;48.07;;;38.07;;
16804;SDS011;8520;50.102;20.010;2023-02-10T03:08:15;45.37;;;37.27;;
16804;SDS011;8520;50.102;20.010;2023-02-10T03:10:43;45.60;;;37.40;;
16804;SDS011;8520;50.102;20.010;2023-02-10T03:13:11;45.37;;;36.20;;
16804;SDS011;8520;50.102;20.010;2023-02-10T03:15:39;44.00;;;35.73;;
16804;SDS011;8520;50.102;20.010;2023-02-10T03:18:07;50.07;;;40.00;;
16804;SDS011;8520;50.102;20.010;2023-02-10T03:20:38;48.60;;;38.27;;
16804;SDS011;8520;50.102;20.010;2023-02-10T03:23:06;48.33;;;37.57;;
16804;SDS011;8520;50.102;20.010;2023-02-10T03:25:34;43.33;;;36.83;;
16804;SDS011;8520;50.102;20.010;2023-02-10T03:28:02;47.40;;;37.97;;
16804;SDS011;8520;50.102;20.010;2023-02-10T03:30:32;49.07;;;39.40;;
16804;SDS011;8520;50.102;20.010;2023-02-10T03:33:00;44.97;;;36.67;;
16804;SDS011;8520;50.102;20.010;2023-02-10T03:35:28;49.77;;;39.83;;
16804;SDS011;8520;50.102;20.010;2023-02-10T03:37:58;45.73;;;36.20;;
16804;SDS011;8520;50.102;20.010;2023-02-10T03:40:26;50.43;;;39.30;;
16804;SDS011;8520;50.102;20.010;2023-02-10T03:42:54;48.33;;;38.03;;
16804;SDS011;8520;50.102;20.010;2023-02-10T03:45:22;47.53;;;37.33;;
16804;SDS011;8520;50.102;20.010;2023-02-10T03:47:50;45.90;;;37.77;;
16804;SDS011;8520;50.102;20.010;2023-02-10T03:50:18;44.20;;;35.33;;
16804;SDS011;8520;50.102;20.010;2023-02-10T03:52:47;40.90;;;32.97;;
16804;SDS011;8520;50.102;20.010;2023-02-10T03:55:16;42.53;;;35.33;;
16804;SDS011;8520;50.102;20.010;2023-02-10T03:57:45;41.63;;;32.80;;
16804;SDS011;8520;50.102;20.010;2023-02-10T04:00:15;39.43;;;32.80;;
16804;SDS011;8520;50.102;20.010;2023-02-10T04:02:43;41.13;;;33.27;;
16804;SDS011;8520;50.102;20.010;2023-02-10T04:05:12;39.63;;;32.87;;
16804;SDS011;8520;50.102;20.010;2023-02-10T04:07:40;43.23;;;33.73;;
16804;SDS011;8520;50.102;20.010;2023-02-10T04:10:08;38.73;;;31.30;;
16804;SDS011;8520;50.102;20.010;2023-02-10T04:12:38;41.43;;;33.70;;
16804;SDS011;8520;50.102;20.010;2023-02-10T04:15:06;44.47;;;35.30;;
16804;SDS011;8520;50.102;20.010;2023-02-10T04:17:35;41.20;;;34.90;;
16804;SDS011;8520;50.102;20.010;2023-02-10T04:20:03;38.87;;;30.13;;
16804;SDS011;8520;50.102;20.010;2023-02-10T04:22:32;37.60;;;27.70;;
16804;SDS011;8520;50.102;20.010;2023-02-10T04:25:00;35.57;;;31.03;;
16804;SDS011;8520;50.102;20.010;2023-02-10T04:27:28;34.93;;;30.87;;
16804;SDS011;8520;50.102;20.010;2023-02-10T04:29:58;38.60;;;32.67;;
16804;SDS011;8520;50.102;20.010;2023-02-10T04:32:26;40.57;;;33.57;;
16804;SDS011;8520;50.102;20.010;2023-02-10T04:34:54;46.17;;;34.43;;
16804;SDS011;8520;50.102;20.010;2023-02-10T04:37:22;38.63;;;32.70;;
16804;SDS011;8520;50.102;20.010;2023-02-10T04:39:50;39.87;;;33.53;;
16804;SDS011;8520;50.102;20.010;2023-02-10T04:42:18;42.47;;;35.40;;
16804;SDS011;8520;50.102;20.010;2023-02-10T04:44:58;45.57;;;37.73;;
16804;SDS011;8520;50.102;20.010;2023-02-10T04:47:27;44.77;;;35.93;;
16804;SDS011;8520;50.102;20.010;2023-02-10T04:49:55;48.63;;;36.80;;
16804;SDS011;8520;50.102;20.010;2023-02-10T04:52:23;43.83;;;35.07;;
16804;SDS011;8520;50.102;20.010;2023-02-10T04:54:51;44.07;;;35.13;;
16804;SDS011;8520;50.102;20.010;2023-02-10T04:57:19;40.00;;;31.97;;
16804;SDS011;8520;50.102;20.010;2023-02-10T04:59:48;41.50;;;33.40;;
16804;SDS011;8520;50.102;20.010;2023-02-10T05:02:17;38.00;;;32.53;;
16804;SDS011;8520;50.102;20.010;2023-02-10T05:04:45;43.23;;;35.73;;
16804;SDS011;8520;50.102;20.010;2023-02-10T05:07:13;44.27;;;36.37;;
16804;SDS011;8520;50.102;20.010;2023-02-10T05:09:41;35.53;;;30.43;;
16804;SDS011;8520;50.102;20.010;2023-02-10T05:12:10;45.90;;;38.60;;
16804;SDS011;8520;50.102;20.010;2023-02-10T05:14:38;44.07;;;36.57;;
16804;SDS011;8520;50.102;20.010;2023-02-10T05:17:06;44.67;;;37.50;;
16804;SDS011;8520;50.102;20.010;2023-02-10T05:19:35;38.50;;;33.83;;
16804;SDS011;8520;50.102;20.010;2023-02-10T05:22:03;40.10;;;34.03;;
16804;SDS011;8520;50.102;20.010;2023-02-10T05:24:32;39.70;;;33.33;;
16804;SDS011;8520;50.102;20.010;2023-02-10T05:27:00;38.90;;;33.30;;
16804;SDS011;8520;50.102;20.010;2023-02-10T05:29:28;40.27;;;32.53;;
16804;SDS011;8520;50.102;20.010;2023-02-10T05:31:56;38.13;;;33.13;;
16804;SDS011;8520;50.102;20.010;2023-02-10T05:34:24;37.13;;;31.30;;
16804;SDS011;8520;50.102;20.010;2023-02-10T05:36:54;36.23;;;31.50;;
16804;SDS011;8520;50.102;20.010;2023-02-10T05:39:22;43.97;;;35.07;;
16804;SDS011;8520;50.102;20.010;2023-02-10T05:41:51;41.33;;;34.90;;
16804;SDS011;8520;50.102;20.010;2023-02-10T05:44:20;43.40;;;34.83;;
16804;SDS011;8520;50.102;20.010;2023-02-10T05:46:48;41.80;;;33.27;;
16804;SDS011;8520;50.102;20.010;2023-02-10T05:49:16;41.53;;;34.17;;
16804;SDS011;8520;50.102;20.010;2023-02-10T05:51:45;37.93;;;33.53;;
16804;SDS011;8520;50.102;20.010;2023-02-10T05:54:15;37.87;;;32.47;;
16804;SDS011;8520;50.102;20.010;2023-02-10T05:56:44;41.97;;;35.03;;
16804;SDS011;8520;50.102;20.010;2023-02-10T05:59:12;40.17;;;34.77;;
16804;SDS011;8520;50.102;20.010;2023-02-10T06:01:41;39.43;;;33.07;;
16804;SDS011;8520;50.102;20.010;2023-02-10T06:04:10;40.70;;;34.20;;
16804;SDS011;8520;50.102;20.010;2023-02-10T06:06:38;37.10;;;32.20;;
16804;SDS011;8520;50.102;20.010;2023-02-10T06:09:06;42.03;;;34.90;;
16804;SDS011;8520;50.102;20.010;2023-02-10T06:11:36;42.80;;;36.17;;
16804;SDS011;8520;50.102;20.010;2023-02-10T06:14:04;41.83;;;33.20;;
16804;SDS011;8520;50.102;20.010;2023-02-10T06:16:32;35.77;;;31.23;;
16804;SDS011;8520;50.102;20.010;2023-02-10T06:19:00;36.87;;;31.70;;
16804;SDS011;8520;50.102;20.010;2023-02-10T06:21:30;34.83;;;30.87;;
16804;SDS011;8520;50.102;20.010;2023-02-10T06:23:58;35.00;;;30.43;;
16804;SDS011;8520;50.102;20.010;2023-02-10T06:26:26;39.17;;;31.43;;
16804;SDS011;8520;50.102;20.010;2023-02-10T06:28:56;34.80;;;30.60;;
16804;SDS011;8520;50.102;20.010;2023-02-10T06:31:24;38.77;;;32.70;;
16804;SDS011;8520;50.102;20.010;2023-02-10T06:33:52;34.00;;;28.57;;
16804;SDS011;8520;50.102;20.010;2023-02-10T06:36:21;32.23;;;28.90;;
16804;SDS011;8520;50.102;20.010;2023-02-10T06:38:49;39.23;;;32.13;;
16804;SDS011;8520;50.102;20.010;2023-02-10T06:41:17;35.97;;;29.87;;
16804;SDS011;8520;50.102;20.010;2023-02-10T06:43:46;33.40;;;29.73;;
16804;SDS011;8520;50.102;20.010;2023-02-10T06:46:15;34.27;;;28.87;;
16804;SDS011;8520;50.102;20.010;2023-02-10T06:48:43;35.60;;;29.73;;
16804;SDS011;8520;50.102;20.010;2023-02-10T06:51:11;31.93;;;28.33;;
16804;SDS011;8520;50.102;20.010;2023-02-10T06:53:40;29.90;;;26.80;;
16804;SDS011;8520;50.102;20.010;2023-02-10T06:56:08;35.03;;;29.47;;
16804;SDS011;8520;50.102;20.010;2023-02-10T06:58:37;35.80;;;31.13;;
16804;SDS011;8520;50.102;20.010;2023-02-10T07:01:08;41.43;;;34.30;;
16804;SDS011;8520;50.102;20.010;2023-02-10T07:03:38;41.73;;;35.27;;
16804;SDS011;8520;50.102;20.010;2023-02-10T07:06:06;41.67;;;33.73;;
16804;SDS011;8520;50.102;20.010;2023-02-10T07:08:34;39.60;;;33.47;;
16804;SDS011;8520;50.102;20.010;2023-02-10T07:11:03;40.13;;;31.73;;
16804;SDS011;8520;50.102;20.010;2023-02-10T07:13:31;36.67;;;31.27;;
16804;SDS011;8520;50.102;20.010;2023-02-10T07:15:59;39.70;;;33.47;;
16804;SDS011;8520;50.102;20.010;2023-02-10T07:18:27;37.23;;;32.43;;
16804;SDS011;8520;50.102;20.010;2023-02-10T07:20:57;38.50;;;31.00;;
16804;SDS011;8520;50.102;20.010;2023-02-10T07:23:25;36.13;;;31.27;;
16804;SDS011;8520;50.102;20.010;2023-02-10T07:26:02;34.47;;;30.53;;
16804;SDS011;8520;50.102;20.010;2023-02-10T07:28:31;36.13;;;32.07;;
16804;SDS011;8520;50.102;20.010;2023-02-10T07:31:00;37.90;;;33.13;;
16804;SDS011;8520;50.102;20.010;2023-02-10T07:33:28;35.93;;;31.77;;
16804;SDS011;8520;50.102;20.010;2023-02-10T07:35:59;35.70;;;31.73;;
16804;SDS011;8520;50.102;20.010;2023-02-10T07:38:28;37.93;;;32.97;;
16804;SDS011;8520;50.102;20.010;2023-02-10T07:40:57;37.57;;;32.83;;
16804;SDS011;8520;50.102;20.010;2023-02-10T07:43:25;39.80;;;34.00;;
16804;SDS011;8520;50.102;20.010;2023-02-10T07:46:15;37.47;;;33.47;;
16804;SDS011;8520;50.102;20.010;2023-02-10T07:48:43;43.77;;;36.73;;
16804;SDS011;8520;50.102;20.010;2023-02-10T07:51:12;43.43;;;37.60;;
16804;SDS011;8520;50.102;20.010;2023-02-10T07:53:40;39.93;;;34.90;;
16804;SDS011;8520;50.102;20.010;2023-02-10T07:56:09;41.23;;;36.00;;
16804;SDS011;8520;50.102;20.010;2023-02-10T07:58:37;40.97;;;35.97;;
16804;SDS011;8520;50.102;20.010;2023-02-10T08:01:05;40.10;;;34.70;;
16804;SDS011;8520;50.102;20.010;2023-02-10T08:03:34;43.63;;;35.03;;
16804;SDS011;8520;50.102;20.010;2023-02-10T08:06:03;39.20;;;34.90;;
16804;SDS011;8520;50.102;20.010;2023-02-10T08:08:33;38.57;;;34.47;;
16804;SDS011;8520;50.102;20.010;2023-02-10T08:11:02;35.43;;;31.57;;
16804;SDS011;8520;50.102;20.010;2023-02-10T08:13:31;35.87;;;32.23;;
16804;SDS011;8520;50.102;20.010;2023-02-10T08:16:02;33.30;;;29.90;;
16804;SDS011;8520;50.102;20.010;2023-02-10T08:18:31;32.90;;;28.87;;
16804;SDS011;8520;50.102;20.010;2023-02-10T08:20:59;34.20;;;30.10;;
16804;SDS011;8520;50.102;20.010;2023-02-10T08:23:28;34.20;;;29.60;;
16804;SDS011;8520;50.102;20.010;2023-02-10T08:25:57;33.00;;;29.50;;
16804;SDS011;8520;50.102;20.010;2023-02-10T08:28:25;34.70;;;28.67;;
16804;SDS011;8520;50.102;20.010;2023-02-10T08:30:54;34.73;;;29.67;;
16804;SDS011;8520;50.102;20.010;2023-02-10T08:33:26;31.77;;;28.10;;
16804;SDS011;8520;50.102;20.010;2023-02-10T08:36:03;30.63;;;27.33;;
16804;SDS011;8520;50.102;20.010;2023-02-10T08:38:32;32.67;;;29.17;;
16804;SDS011;8520;50.102;20.010;2023-02-10T08:41:02;33.67;;;30.10;;
16804;SDS011;8520;50.102;20.010;2023-02-10T08:43:31;33.47;;;29.87;;
16804;SDS011;8520;50.102;20.010;2023-02-10T08:45:59;32.53;;;29.13;;
16804;SDS011;8520;50.102;20.010;2023-02-10T08:48:28;34.67;;;27.93;;
16804;SDS011;8520;50.102;20.010;2023-02-10T08:50:57;31.00;;;26.30;;
16804;SDS011;8520;50.102;20.010;2023-02-10T08:53:25;29.23;;;25.87;;
16804;SDS011;8520;50.102;20.010;2023-02-10T08:55:54;30.77;;;27.47;;
16804;SDS011;8520;50.102;20.010;2023-02-10T08:58:27;26.80;;;23.90;;
16804;SDS011;8520;50.102;20.010;2023-02-10T09:00:55;30.30;;;26.83;;
16804;SDS011;8520;50.102;20.010;2023-02-10T09:03:24;25.80;;;23.23;;
16804;SDS011;8520;50.102;20.010;2023-02-10T09:05:53;24.90;;;22.23;;
16804;SDS011;8520;50.102;20.010;2023-02-10T09:08:21;27.87;;;24.00;;
16804;SDS011;8520;50.102;20.010;2023-02-10T09:10:49;25.27;;;22.67;;
16804;SDS011;8520;50.102;20.010;2023-02-10T09:13:17;23.97;;;21.47;;
16804;SDS011;8520;50.102;20.010;2023-02-10T09:15:46;26.20;;;22.47;;
16804;SDS011;8520;50.102;20.010;2023-02-10T09:18:15;26.20;;;22.87;;
16804;SDS011;8520;50.102;20.010;2023-02-10T09:20:43;27.13;;;23.67;;
16804;SDS011;8520;50.102;20.010;2023-02-10T09:23:11;25.90;;;23.10;;
16804;SDS011;8520;50.102;20.010;2023-02-10T09:25:39;26.13;;;23.33;;
16804;SDS011;8520;50.102;20.010;2023-02-10T09:28:08;26.90;;;24.03;;
16804;SDS011;8520;50.102;20.010;2023-02-10T09:30:36;25.63;;;23.03;;
16804;SDS011;8520;50.102;20.010;2023-02-10T09:33:05;26.57;;;23.63;;
16804;SDS011;8520;50.102;20.010;2023-02-10T09:35:33;26.63;;;22.57;;
16804;SDS011;8520;50.102;20.010;2023-02-10T09:38:01;25.93;;;23.07;;
16804;SDS011;8520;50.102;20.010;2023-02-10T09:40:31;25.63;;;22.83;;
16804;SDS011;8520;50.102;20.010;2023-02-10T09:43:04;27.27;;;24.53;;
16804;SDS011;8520;50.102;20.010;2023-02-10T09:45:40;29.37;;;24.63;;
16804;SDS011;8520;50.102;20.010;2023-02-10T09:48:22;28.97;;;24.80;;
16804;SDS011;8520;50.102;20.010;2023-02-10T09:51:00;26.97;;;24.10;;
16804;SDS011;8520;50.102;20.010;2023-02-10T09:53:34;30.83;;;25.90;;
16804;SDS011;8520;50.102;20.010;2023-02-10T09:56:05;29.70;;;23.87;;
16804;SDS011;8520;50.102;20.010;2023-02-10T09:58:41;27.63;;;23.53;;
16804;SDS011;8520;50.102;20.010;2023-02-10T10:01:14;29.03;;;24.50;;
16804;SDS011;8520;50.102;20.010;2023-02-10T10:03:47;26.37;;;23.33;;
16804;SDS011;8520;50.102;20.010;2023-02-10T10:06:20;26.77;;;23.90;;
16804;SDS011;8520;50.102;20.010;2023-02-10T10:08:56;27.40;;;22.37;;
16804;SDS011;8520;50.102;20.010;2023-02-10T10:11:32;25.57;;;22.73;;
16804;SDS011;8520;50.102;20.010;2023-02-10T10:14:05;26.33;;;23.53;;
16804;SDS011;8520;50.102;20.010;2023-02-10T10:16:50;28.60;;;25.00;;
16804;SDS011;8520;50.102;20.010;2023-02-10T10:19:38;25.37;;;22.67;;
16804;SDS011;8520;50.102;20.010;2023-02-10T10:22:27;27.30;;;23.33;;
16804;SDS011;8520;50.102;20.010;2023-02-10T10:25:15;26.47;;;23.87;;
16804;SDS011;8520;50.102;20.010;2023-02-10T10:28:02;25.37;;;22.77;;
16804;SDS011;8520;50.102;20.010;2023-02-10T10:30:38;25.63;;;22.77;;
16804;SDS011;8520;50.102;20.010;2023-02-10T10:33:17;25.83;;;21.47;;
16804;SDS011;8520;50.102;20.010;2023-02-10T10:35:51;24.97;;;22.33;;
16804;SDS011;8520;50.102;20.010;2023-02-10T10:38:21;26.77;;;22.13;;
16804;SDS011;8520;50.102;20.010;2023-02-10T10:40:52;26.23;;;22.40;;
16804;SDS011;8520;50.102;20.010;2023-02-10T10:43:26;23.83;;;21.40;;
16804;SDS011;8520;50.102;20.010;2023-02-10T10:45:58;23.07;;;20.67;;
16804;SDS011;8520;50.102;20.010;2023-02-10T10:48:31;23.63;;;21.23;;
16804;SDS011;8520;50.102;20.010;2023-02-10T10:51:03;20.77;;;18.77;;
16804;SDS011;8520;50.102;20.010;2023-02-10T10:53:35;22.67;;;20.27;;
16804;SDS011;8520;50.102;20.010;2023-02-10T10:56:08;21.00;;;18.80;;
16804;SDS011;8520;50.102;20.010;2023-02-10T10:58:43;19.90;;;17.93;;
16804;SDS011;8520;50.102;20.010;2023-02-10T11:01:13;20.40;;;18.50;;
16804;SDS011;8520;50.102;20.010;2023-02-10T11:03:43;18.50;;;16.77;;
16804;SDS011;8520;50.102;20.010;2023-02-10T11:06:13;20.47;;;18.57;;
16804;SDS011;8520;50.102;20.010;2023-02-10T11:08:44;19.03;;;17.17;;
16804;SDS011;8520;50.102;20.010;2023-02-10T11:11:19;19.57;;;17.83;;
16804;SDS011;8520;50.102;20.010;2023-02-10T11:14:11;19.47;;;17.57;;
16804;SDS011;8520;50.102;20.010;2023-02-10T11:16:41;19.07;;;17.13;;
16804;SDS011;8520;50.102;20.010;2023-02-10T11:19:17;18.50;;;16.60;;
16804;SDS011;8520;50.102;20.010;2023-02-10T11:21:50;19.30;;;17.40;;
16804;SDS011;8520;50.102;20.010;2023-02-10T11:24:21;18.50;;;16.70;;
16804;SDS011;8520;50.102;20.010;2023-02-10T11:26:55;18.97;;;17.13;;
16804;SDS011;8520;50.102;20.010;2023-02-10T11:29:24;19.93;;;17.90;;
16804;SDS011;8520;50.102;20.010;2023-02-10T11:31:53;19.97;;;17.97;;
16804;SDS011;8520;50.102;20.010;2023-02-10T11:34:25;19.83;;;17.93;;
16804;SDS011;8520;50.102;20.010;2023-02-10T11:36:56;18.80;;;16.90;;
16804;SDS011;8520;50.102;20.010;2023-02-10T11:39:27;19.10;;;17.27;;
16804;SDS011;8520;50.102;20.010;2023-02-10T11:42:06;19.70;;;17.67;;
16804;SDS011;8520;50.102;20.010;2023-02-10T11:44:35;19.27;;;17.27;;
16804;SDS011;8520;50.102;20.010;2023-02-10T11:47:04;19.43;;;17.53;;
16804;SDS011;8520;50.102;20.010;2023-02-10T11:49:41;20.50;;;18.40;;
16804;SDS011;8520;50.102;20.010;2023-02-10T11:52:12;20.23;;;18.07;;
16804;SDS011;8520;50.102;20.010;2023-02-10T11:54:41;19.43;;;17.50;;
16804;SDS011;8520;50.102;20.010;2023-02-10T11:57:16;20.93;;;18.93;;
16804;SDS011;8520;50.102;20.010;2023-02-10T12:00:12;21.10;;;18.97;;
16804;SDS011;8520;50.102;20.010;2023-02-10T12:02:54;19.90;;;17.90;;
16804;SDS011;8520;50.102;20.010;2023-02-10T12:05:58;20.40;;;18.30;;
16804;SDS011;8520;50.102;20.010;2023-02-10T12:08:39;19.63;;;17.73;;
16804;SDS011;8520;50.102;20.010;2023-02-10T12:11:14;20.13;;;18.13;;
16804;SDS011;8520;50.102;20.010;2023-02-10T12:13:53;19.70;;;17.63;;
16804;SDS011;8520;50.102;20.010;2023-02-10T12:16:30;18.63;;;16.80;;
16804;SDS011;8520;50.102;20.010;2023-02-10T12:19:12;19.33;;;16.90;;
16804;SDS011;8520;50.102;20.010;2023-02-10T12:21:54;20.57;;;18.47;;
16804;SDS011;8520;50.102;20.010;2023-02-10T12:24:37;20.40;;;18.30;;
16804;SDS011;8520;50.102;20.010;2023-02-10T12:27:25;20.77;;;18.57;;
16804;SDS011;8520;50.102;20.010;2023-02-10T12:30:02;20.03;;;17.63;;
16804;SDS011;8520;50.102;20.010;2023-02-10T12:32:36;20.20;;;18.30;;
16804;SDS011;8520;50.102;20.010;2023-02-10T12:35:18;20.30;;;18.33;;
16804;SDS011;8520;50.102;20.010;2023-02-10T12:38:06;20.33;;;18.37;;
16804;SDS011;8520;50.102;20.010;2023-02-10T12:40:53;21.33;;;19.27;;
16804;SDS011;8520;50.102;20.010;2023-02-10T12:43:35;20.70;;;18.67;;
16804;SDS011;8520;50.102;20.010;2023-02-10T12:46:23;20.00;;;18.13;;
16804;SDS011;8520;50.102;20.010;2023-02-10T12:49:04;20.17;;;18.30;;
16804;SDS011;8520;50.102;20.010;2023-02-10T12:51:45;20.03;;;18.23;;
16804;SDS011;8520;50.102;20.010;2023-02-10T12:54:23;21.43;;;19.17;;
16804;SDS011;8520;50.102;20.010;2023-02-10T12:57:12;20.57;;;18.67;;
16804;SDS011;8520;50.102;20.010;2023-02-10T12:59:49;19.00;;;17.23;;
16804;SDS011;8520;50.102;20.010;2023-02-10T13:02:22;19.23;;;17.37;;
16804;SDS011;8520;50.102;20.010;2023-02-10T13:04:57;20.33;;;18.37;;
16804;SDS011;8520;50.102;20.010;2023-02-10T13:07:32;20.63;;;18.53;;
16804;SDS011;8520;50.102;20.010;2023-02-10T13:10:09;21.00;;;18.90;;
16804;SDS011;8520;50.102;20.010;2023-02-10T13:12:48;19.57;;;17.67;;
16804;SDS011;8520;50.102;20.010;2023-02-10T13:15:19;21.97;;;19.47;;
16804;SDS011;8520;50.102;20.010;2023-02-10T13:17:52;20.87;;;18.77;;
16804;SDS011;8520;50.102;20.010;2023-02-10T13:20:28;20.03;;;18.23;;
16804;SDS011;8520;50.102;20.010;2023-02-10T13:23:04;21.07;;;19.10;;
16804;SDS011;8520;50.102;20.010;2023-02-10T13:25:45;20.20;;;18.03;;
16804;SDS011;8520;50.102;20.010;2023-02-10T13:28:33;20.80;;;18.63;;
16804;SDS011;8520;50.102;20.010;2023-02-10T13:31:14;21.13;;;18.93;;
16804;SDS011;8520;50.102;20.010;2023-02-10T13:33:59;22.47;;;20.27;;
16804;SDS011;8520;50.102;20.010;2023-02-10T13:36:30;21.27;;;19.23;;
16804;SDS011;8520;50.102;20.010;2023-02-10T13:39:03;22.63;;;20.23;;
16804;SDS011;8520;50.102;20.010;2023-02-10T13:41:40;21.83;;;19.73;;
16804;SDS011;8520;50.102;20.010;2023-02-10T13:44:22;22.77;;;20.47;;
16804;SDS011;8520;50.102;20.010;2023-02-10T13:47:13;21.77;;;19.67;;
16804;SDS011;8520;50.102;20.010;2023-02-10T13:49:52;23.53;;;20.50;;
16804;SDS011;8520;50.102;20.010;2023-02-10T13:52:23;20.90;;;18.73;;
16804;SDS011;8520;50.102;20.010;2023-02-10T13:54:53;22.93;;;20.03;;
16804;SDS011;8520;50.102;20.010;2023-02-10T13:57:24;22.00;;;19.93;;
16804;SDS011;8520;50.102;20.010;2023-02-10T14:00:09;22.37;;;20.23;;
16804;SDS011;8520;50.102;20.010;2023-02-10T14:02:40;23.97;;;21.47;;
16804;SDS011;8520;50.102;20.010;2023-02-10T14:05:23;22.60;;;20.30;;
16804;SDS011;8520;50.102;20.010;2023-02-10T14:07:53;23.83;;;21.33;;
16804;SDS011;8520;50.102;20.010;2023-02-10T14:10:26;23.60;;;21.27;;
16804;SDS011;8520;50.102;20.010;2023-02-10T14:13:01;23.90;;;21.40;;
16804;SDS011;8520;50.102;20.010;2023-02-10T14:15:34;24.80;;;22.03;;
16804;SDS011;8520;50.102;20.010;2023-02-10T14:18:04;24.03;;;21.57;;
16804;SDS011;8520;50.102;20.010;2023-02-10T14:20:54;23.97;;;21.43;;
16804;SDS011;8520;50.102;20.010;2023-02-10T14:23:23;24.90;;;21.73;;
16804;SDS011;8520;50.102;20.010;2023-02-10T14:25:54;23.73;;;21.33;;
16804;SDS011;8520;50.102;20.010;2023-02-10T14:28:25;24.70;;;22.30;;
16804;SDS011;8520;50.102;20.010;2023-02-10T14:30:59;24.53;;;22.17;;
16804;SDS011;8520;50.102;20.010;2023-02-10T14:33:29;25.17;;;22.53;;
16804;SDS011;8520;50.102;20.010;2023-02-10T14:36:00;24.97;;;22.53;;
16804;SDS011;8520;50.102;20.010;2023-02-10T14:38:31;24.43;;;22.10;;
16804;SDS011;8520;50.102;20.010;2023-02-10T14:41:02;25.57;;;22.80;;
16804;SDS011;8520;50.102;20.010;2023-02-10T14:43:46;24.90;;;22.40;;
16804;SDS011;8520;50.102;20.010;2023-02-10T14:46:19;25.50;;;23.03;;
16804;SDS011;8520;50.102;20.010;2023-02-10T14:48:49;24.93;;;22.33;;
16804;SDS011;8520;50.102;20.010;2023-02-10T14:51:24;25.53;;;22.87;;
16804;SDS011;8520;50.102;20.010;2023-02-10T14:53:54;25.57;;;21.80;;
16804;SDS011;8520;50.102;20.010;2023-02-10T14:56:25;26.17;;;23.37;;